Lady Lake, FL (32159)

12:07 PM EDT on August 29, 2015 (GMT -0400)
KFLLADYL7 | | Change Station
CLOSE
Current Station
Personal Weather Station
Location: Lady Lake, FL
Elevation: 72 ft
Nearby Weather Stations

Elev 72 ft 28.90 °N, 81.92 °W | Updated 3 seconds ago

Partly Cloudy
Partly Cloudy
87.3 °F
Feels Like 102 °F
N
1.0
Wind Variable Wind from SSE
Gusts 8.0 mph

Today
High -- | Low -- °F
--% Chance of Precip.
Yesterday
High -- | Low -- °F
Precip. -- in
7:03 AM 7:52 PM
Full, 100% visible
Pressure 30.00 in
Visibility 6.0 miles
Clouds
Heat Index 102 °F
Dew Point 79 °F
Humidity 77%
Rainfall 0.00 in
Snow Depth Not available.
UV Not available.
Pollen 6.70 out of 12
Air Quality Not available.
Flu Activity Not available.
METAR KVVG 291555Z AUTO 08007KT 6SM HZ 30/25 A3000 RMK A01
Pressure 30.00 in
Visibility 6.0 miles
Clouds
Heat Index 102 °F
Dew Point 79 °F
Humidity 77%
Rainfall 0.00 in
Snow Depth Not available.
UV Not available.
Pollen 6.70 out of 12
Air Quality Not available.
Flu Activity Not available.
METAR KVVG 291555Z AUTO 08007KT 6SM HZ 30/25 A3000 RMK A01
Nowcast | as of 11:00 am EDT on August 29, 2015

Through early afternoon...isolated coastal showers will increase in coverage through late day inland from the coast as the sea breeze ventures inland. Movement will be north or north-northwest at 5 to 10 mph. Threats remain locally heavy rainfall...gusty winds...and frequent lightning. Tropical Storm Erika has dissipated and is now a remnant area of low pressure. There is a chance that this low pressure could again strengthen to a tropical storm as it moves away from land and moves northward over the waters of the eastern Gulf in the upcoming days. As this occurs the main concern for east central Florida will be from heavy tropical rains for Sunday into Monday. Additional details...including graphics are available online at: http://www.Srh.NOAA.Gov/mlb/blog.Php

×

10-Day Weather Forecast

×

Almanac

Astronomy

Aug. 29, 2015 Rise Set
Actual Time
Civil Twilight
Nautical Twilight
Astronomical Twilight
Moon
Length of Visible Light
Length of Day
Tomorrow will be .
, % of the Moon is Illuminated

Today's Extremes

State Highs State Lows

Community

WunderPhotos

Upload Photos

1,850,709 photos uploaded!

WunderBlogs® & News

Nearby

Air Quality

  Air Quality AQ Index Pollutant
Not available.

Snow Depth

Station Depth Elevation

Earthquake Activity

City Distance Mag. Time & Date
Minimum magnitude displayed is 2.5.

Coastal Water Temperatures

Place Temperature

Stations

Nearby Weather Stations

Station Location Temp. Windchill Dew Point Humidity Wind Precip. Elev Updated Type